sensor_id;sensor_type;location;lat;lon;timestamp;P1;durP1;ratioP1;P2;durP2;ratioP2
51048;SDS011;37084;55.228;36.450;2022-11-03T00:01:24;13.35;;;5.65;;
51048;SDS011;37084;55.228;36.450;2022-11-03T00:04:26;14.77;;;6.07;;
51048;SDS011;37084;55.228;36.450;2022-11-03T00:07:27;10.90;;;4.70;;
51048;SDS011;37084;55.228;36.450;2022-11-03T00:10:29;11.25;;;7.18;;
51048;SDS011;37084;55.228;36.450;2022-11-03T00:13:30;15.00;;;6.13;;
51048;SDS011;37084;55.228;36.450;2022-11-03T00:16:32;12.63;;;5.65;;
51048;SDS011;37084;55.228;36.450;2022-11-03T00:19:33;10.82;;;5.25;;
51048;SDS011;37084;55.228;36.450;2022-11-03T00:22:34;12.43;;;5.47;;
51048;SDS011;37084;55.228;36.450;2022-11-03T00:25:36;12.82;;;6.03;;
51048;SDS011;37084;55.228;36.450;2022-11-03T00:28:37;13.27;;;5.93;;
51048;SDS011;37084;55.228;36.450;2022-11-03T00:31:40;12.85;;;5.90;;
51048;SDS011;37084;55.228;36.450;2022-11-03T00:34:43;14.57;;;5.93;;
51048;SDS011;37084;55.228;36.450;2022-11-03T00:37:44;13.20;;;5.55;;
51048;SDS011;37084;55.228;36.450;2022-11-03T00:40:51;11.93;;;5.18;;
51048;SDS011;37084;55.228;36.450;2022-11-03T00:43:56;16.17;;;6.90;;
51048;SDS011;37084;55.228;36.450;2022-11-03T00:46:57;15.68;;;5.68;;
51048;SDS011;37084;55.228;36.450;2022-11-03T00:49:58;10.18;;;4.30;;
51048;SDS011;37084;55.228;36.450;2022-11-03T00:53:00;12.48;;;5.43;;
51048;SDS011;37084;55.228;36.450;2022-11-03T00:56:01;14.48;;;5.43;;
51048;SDS011;37084;55.228;36.450;2022-11-03T00:59:03;15.25;;;5.60;;
51048;SDS011;37084;55.228;36.450;2022-11-03T01:02:05;13.85;;;5.85;;
51048;SDS011;37084;55.228;36.450;2022-11-03T01:05:07;15.95;;;6.25;;
51048;SDS011;37084;55.228;36.450;2022-11-03T01:08:33;14.73;;;6.70;;
51048;SDS011;37084;55.228;36.450;2022-11-03T01:11:35;19.00;;;6.90;;
51048;SDS011;37084;55.228;36.450;2022-11-03T01:14:46;12.35;;;5.30;;
51048;SDS011;37084;55.228;36.450;2022-11-03T01:17:51;11.00;;;5.10;;
51048;SDS011;37084;55.228;36.450;2022-11-03T01:20:55;13.82;;;6.22;;
51048;SDS011;37084;55.228;36.450;2022-11-03T01:23:58;14.15;;;5.63;;
51048;SDS011;37084;55.228;36.450;2022-11-03T01:27:01;13.60;;;6.65;;
51048;SDS011;37084;55.228;36.450;2022-11-03T01:30:03;13.80;;;6.03;;
51048;SDS011;37084;55.228;36.450;2022-11-03T01:33:04;13.32;;;5.38;;
51048;SDS011;37084;55.228;36.450;2022-11-03T01:36:06;11.15;;;5.38;;
51048;SDS011;37084;55.228;36.450;2022-11-03T01:39:11;12.70;;;5.00;;
51048;SDS011;37084;55.228;36.450;2022-11-03T01:42:13;13.25;;;4.60;;
51048;SDS011;37084;55.228;36.450;2022-11-03T01:45:15;12.25;;;5.80;;
51048;SDS011;37084;55.228;36.450;2022-11-03T01:48:16;10.85;;;5.30;;
51048;SDS011;37084;55.228;36.450;2022-11-03T01:51:19;8.63;;;4.25;;
51048;SDS011;37084;55.228;36.450;2022-11-03T01:54:22;11.50;;;5.25;;
51048;SDS011;37084;55.228;36.450;2022-11-03T01:57:25;14.25;;;5.85;;
51048;SDS011;37084;55.228;36.450;2022-11-03T02:00:33;10.50;;;5.05;;
51048;SDS011;37084;55.228;36.450;2022-11-03T02:03:37;15.48;;;5.10;;
51048;SDS011;37084;55.228;36.450;2022-11-03T02:06:41;13.90;;;5.35;;
51048;SDS011;37084;55.228;36.450;2022-11-03T02:09:43;11.50;;;5.15;;
51048;SDS011;37084;55.228;36.450;2022-11-03T02:12:44;12.93;;;5.80;;
51048;SDS011;37084;55.228;36.450;2022-11-03T02:15:46;12.95;;;5.25;;
51048;SDS011;37084;55.228;36.450;2022-11-03T02:18:49;11.60;;;5.40;;
51048;SDS011;37084;55.228;36.450;2022-11-03T02:21:54;12.35;;;5.65;;
51048;SDS011;37084;55.228;36.450;2022-11-03T02:28:45;11.20;;;5.70;;
51048;SDS011;37084;55.228;36.450;2022-11-03T02:31:57;10.80;;;5.32;;
51048;SDS011;37084;55.228;36.450;2022-11-03T02:38:43;10.75;;;4.63;;
51048;SDS011;37084;55.228;36.450;2022-11-03T02:41:47;10.27;;;4.88;;
51048;SDS011;37084;55.228;36.450;2022-11-03T02:44:49;11.43;;;4.72;;
51048;SDS011;37084;55.228;36.450;2022-11-03T02:47:54;10.55;;;4.55;;
51048;SDS011;37084;55.228;36.450;2022-11-03T02:50:58;12.30;;;4.88;;
51048;SDS011;37084;55.228;36.450;2022-11-03T03:01:34;9.80;;;4.05;;
51048;SDS011;37084;55.228;36.450;2022-11-03T03:04:48;10.57;;;3.60;;
51048;SDS011;37084;55.228;36.450;2022-11-03T03:07:56;8.27;;;3.97;;
51048;SDS011;37084;55.228;36.450;2022-11-03T03:11:01;8.85;;;4.32;;
51048;SDS011;37084;55.228;36.450;2022-11-03T03:14:11;11.10;;;5.00;;
51048;SDS011;37084;55.228;36.450;2022-11-03T03:20:38;9.32;;;4.13;;
51048;SDS011;37084;55.228;36.450;2022-11-03T03:24:06;9.25;;;4.65;;
51048;SDS011;37084;55.228;36.450;2022-11-03T03:27:15;7.05;;;3.08;;
51048;SDS011;37084;55.228;36.450;2022-11-03T03:30:18;11.38;;;5.88;;
51048;SDS011;37084;55.228;36.450;2022-11-03T03:33:19;13.10;;;4.70;;
51048;SDS011;37084;55.228;36.450;2022-11-03T03:36:21;14.13;;;4.95;;
51048;SDS011;37084;55.228;36.450;2022-11-03T03:39:25;9.88;;;4.38;;
51048;SDS011;37084;55.228;36.450;2022-11-03T03:42:28;9.25;;;4.63;;
51048;SDS011;37084;55.228;36.450;2022-11-03T03:45:31;8.27;;;3.13;;
51048;SDS011;37084;55.228;36.450;2022-11-03T03:48:34;7.35;;;3.42;;
51048;SDS011;37084;55.228;36.450;2022-11-03T03:51:35;9.23;;;4.32;;
51048;SDS011;37084;55.228;36.450;2022-11-03T03:54:37;10.60;;;4.50;;
51048;SDS011;37084;55.228;36.450;2022-11-03T03:57:39;7.43;;;3.53;;
51048;SDS011;37084;55.228;36.450;2022-11-03T04:00:40;9.20;;;4.40;;
51048;SDS011;37084;55.228;36.450;2022-11-03T04:07:02;9.90;;;4.50;;
51048;SDS011;37084;55.228;36.450;2022-11-03T04:10:22;11.85;;;4.70;;
51048;SDS011;37084;55.228;36.450;2022-11-03T04:13:23;10.57;;;5.00;;
51048;SDS011;37084;55.228;36.450;2022-11-03T04:16:56;13.00;;;4.93;;
51048;SDS011;37084;55.228;36.450;2022-11-03T04:20:16;10.63;;;4.72;;
51048;SDS011;37084;55.228;36.450;2022-11-03T04:23:36;8.70;;;4.45;;
51048;SDS011;37084;55.228;36.450;2022-11-03T04:26:37;9.05;;;3.90;;
51048;SDS011;37084;55.228;36.450;2022-11-03T04:30:12;10.63;;;4.28;;
51048;SDS011;37084;55.228;36.450;2022-11-03T04:33:17;10.43;;;4.78;;
51048;SDS011;37084;55.228;36.450;2022-11-03T04:36:21;10.05;;;4.25;;
51048;SDS011;37084;55.228;36.450;2022-11-03T04:39:24;10.45;;;3.90;;
51048;SDS011;37084;55.228;36.450;2022-11-03T04:42:25;10.77;;;4.30;;
51048;SDS011;37084;55.228;36.450;2022-11-03T04:45:28;8.98;;;5.88;;
51048;SDS011;37084;55.228;36.450;2022-11-03T04:48:31;9.25;;;4.00;;
51048;SDS011;37084;55.228;36.450;2022-11-03T04:51:33;9.43;;;3.80;;
51048;SDS011;37084;55.228;36.450;2022-11-03T04:54:35;12.43;;;5.25;;
51048;SDS011;37084;55.228;36.450;2022-11-03T04:57:36;10.23;;;4.30;;
51048;SDS011;37084;55.228;36.450;2022-11-03T05:00:37;9.32;;;4.07;;
51048;SDS011;37084;55.228;36.450;2022-11-03T05:03:39;9.10;;;4.10;;
51048;SDS011;37084;55.228;36.450;2022-11-03T05:06:49;11.38;;;4.38;;
51048;SDS011;37084;55.228;36.450;2022-11-03T05:09:52;8.75;;;3.88;;
51048;SDS011;37084;55.228;36.450;2022-11-03T05:12:54;8.13;;;3.67;;
51048;SDS011;37084;55.228;36.450;2022-11-03T05:16:01;12.05;;;5.53;;
51048;SDS011;37084;55.228;36.450;2022-11-03T05:19:03;8.20;;;4.10;;
51048;SDS011;37084;55.228;36.450;2022-11-03T05:22:28;6.68;;;3.58;;
51048;SDS011;37084;55.228;36.450;2022-11-03T05:25:38;5.55;;;2.38;;
51048;SDS011;37084;55.228;36.450;2022-11-03T05:28:43;6.95;;;3.95;;
51048;SDS011;37084;55.228;36.450;2022-11-03T05:31:46;8.45;;;3.53;;
51048;SDS011;37084;55.228;36.450;2022-11-03T05:34:49;7.75;;;3.85;;
51048;SDS011;37084;55.228;36.450;2022-11-03T05:37:52;12.00;;;4.20;;
51048;SDS011;37084;55.228;36.450;2022-11-03T05:40:53;8.63;;;4.25;;
51048;SDS011;37084;55.228;36.450;2022-11-03T05:44:01;9.70;;;3.92;;
51048;SDS011;37084;55.228;36.450;2022-11-03T05:47:13;7.78;;;4.03;;
51048;SDS011;37084;55.228;36.450;2022-11-03T05:50:28;9.73;;;4.35;;
51048;SDS011;37084;55.228;36.450;2022-11-03T05:53:36;7.72;;;3.42;;
51048;SDS011;37084;55.228;36.450;2022-11-03T05:59:43;9.45;;;3.88;;
51048;SDS011;37084;55.228;36.450;2022-11-03T06:02:45;7.03;;;3.38;;
51048;SDS011;37084;55.228;36.450;2022-11-03T06:05:49;9.60;;;3.85;;
51048;SDS011;37084;55.228;36.450;2022-11-03T06:08:50;7.22;;;3.35;;
51048;SDS011;37084;55.228;36.450;2022-11-03T06:11:53;7.43;;;3.65;;
51048;SDS011;37084;55.228;36.450;2022-11-03T06:14:56;6.85;;;3.40;;
51048;SDS011;37084;55.228;36.450;2022-11-03T06:17:58;7.22;;;3.72;;
51048;SDS011;37084;55.228;36.450;2022-11-03T06:21:02;8.90;;;3.35;;
51048;SDS011;37084;55.228;36.450;2022-11-03T06:24:07;7.13;;;3.17;;
51048;SDS011;37084;55.228;36.450;2022-11-03T06:27:19;10.68;;;3.28;;
51048;SDS011;37084;55.228;36.450;2022-11-03T06:30:23;7.30;;;3.42;;
51048;SDS011;37084;55.228;36.450;2022-11-03T06:33:32;5.82;;;3.30;;
51048;SDS011;37084;55.228;36.450;2022-11-03T06:36:35;6.88;;;3.65;;
51048;SDS011;37084;55.228;36.450;2022-11-03T06:39:37;6.85;;;3.85;;
51048;SDS011;37084;55.228;36.450;2022-11-03T06:42:38;8.15;;;3.70;;
51048;SDS011;37084;55.228;36.450;2022-11-03T06:45:49;7.18;;;3.80;;
51048;SDS011;37084;55.228;36.450;2022-11-03T06:48:55;10.35;;;4.05;;
51048;SDS011;37084;55.228;36.450;2022-11-03T06:52:01;8.65;;;4.00;;
51048;SDS011;37084;55.228;36.450;2022-11-03T06:55:14;8.88;;;3.38;;
51048;SDS011;37084;55.228;36.450;2022-11-03T07:01:23;8.65;;;4.10;;
51048;SDS011;37084;55.228;36.450;2022-11-03T07:07:28;8.35;;;3.22;;
51048;SDS011;37084;55.228;36.450;2022-11-03T07:10:30;6.25;;;3.63;;
51048;SDS011;37084;55.228;36.450;2022-11-03T07:13:33;7.38;;;3.85;;
51048;SDS011;37084;55.228;36.450;2022-11-03T07:16:45;11.27;;;4.03;;
51048;SDS011;37084;55.228;36.450;2022-11-03T07:19:51;5.85;;;3.45;;
51048;SDS011;37084;55.228;36.450;2022-11-03T07:22:52;5.38;;;2.92;;
51048;SDS011;37084;55.228;36.450;2022-11-03T07:26:03;7.63;;;4.07;;
51048;SDS011;37084;55.228;36.450;2022-11-03T07:29:09;6.00;;;2.80;;
51048;SDS011;37084;55.228;36.450;2022-11-03T07:32:21;5.97;;;3.80;;
51048;SDS011;37084;55.228;36.450;2022-11-03T07:35:32;6.70;;;3.45;;
51048;SDS011;37084;55.228;36.450;2022-11-03T07:38:34;7.10;;;3.67;;
51048;SDS011;37084;55.228;36.450;2022-11-03T07:41:54;7.32;;;3.78;;
51048;SDS011;37084;55.228;36.450;2022-11-03T07:44:55;7.30;;;3.78;;
51048;SDS011;37084;55.228;36.450;2022-11-03T07:47:56;6.90;;;3.53;;
51048;SDS011;37084;55.228;36.450;2022-11-03T07:51:19;6.55;;;3.60;;
51048;SDS011;37084;55.228;36.450;2022-11-03T07:54:24;8.30;;;4.68;;
51048;SDS011;37084;55.228;36.450;2022-11-03T08:00:32;6.25;;;3.70;;
51048;SDS011;37084;55.228;36.450;2022-11-03T08:03:41;6.93;;;3.50;;
51048;SDS011;37084;55.228;36.450;2022-11-03T08:06:44;7.18;;;4.10;;
51048;SDS011;37084;55.228;36.450;2022-11-03T08:09:46;7.43;;;4.00;;
51048;SDS011;37084;55.228;36.450;2022-11-03T08:12:47;9.23;;;4.93;;
51048;SDS011;37084;55.228;36.450;2022-11-03T08:15:48;5.18;;;3.25;;
51048;SDS011;37084;55.228;36.450;2022-11-03T08:18:50;7.68;;;3.72;;
51048;SDS011;37084;55.228;36.450;2022-11-03T08:21:51;6.57;;;3.15;;
51048;SDS011;37084;55.228;36.450;2022-11-03T08:24:52;5.72;;;3.15;;
51048;SDS011;37084;55.228;36.450;2022-11-03T08:27:53;6.13;;;3.30;;
51048;SDS011;37084;55.228;36.450;2022-11-03T08:30:55;4.82;;;3.17;;
51048;SDS011;37084;55.228;36.450;2022-11-03T08:34:00;7.30;;;3.13;;
51048;SDS011;37084;55.228;36.450;2022-11-03T08:37:02;5.30;;;3.03;;
51048;SDS011;37084;55.228;36.450;2022-11-03T08:40:03;7.60;;;4.88;;
51048;SDS011;37084;55.228;36.450;2022-11-03T08:43:05;6.45;;;3.47;;
51048;SDS011;37084;55.228;36.450;2022-11-03T08:46:06;7.03;;;4.10;;
51048;SDS011;37084;55.228;36.450;2022-11-03T08:49:08;9.05;;;5.30;;
51048;SDS011;37084;55.228;36.450;2022-11-03T08:52:09;6.65;;;3.67;;
51048;SDS011;37084;55.228;36.450;2022-11-03T08:55:10;7.45;;;3.20;;
51048;SDS011;37084;55.228;36.450;2022-11-03T08:58:12;4.53;;;3.15;;
51048;SDS011;37084;55.228;36.450;2022-11-03T09:01:14;5.47;;;3.03;;
51048;SDS011;37084;55.228;36.450;2022-11-03T09:04:15;6.50;;;2.80;;
51048;SDS011;37084;55.228;36.450;2022-11-03T09:07:16;4.68;;;2.33;;
51048;SDS011;37084;55.228;36.450;2022-11-03T09:10:18;4.38;;;2.42;;
51048;SDS011;37084;55.228;36.450;2022-11-03T09:13:19;4.43;;;2.45;;
51048;SDS011;37084;55.228;36.450;2022-11-03T09:16:20;3.72;;;2.45;;
51048;SDS011;37084;55.228;36.450;2022-11-03T09:19:21;5.60;;;2.65;;
51048;SDS011;37084;55.228;36.450;2022-11-03T09:22:23;4.07;;;2.53;;
51048;SDS011;37084;55.228;36.450;2022-11-03T09:25:25;6.70;;;3.60;;
51048;SDS011;37084;55.228;36.450;2022-11-03T09:28:26;6.53;;;3.28;;
51048;SDS011;37084;55.228;36.450;2022-11-03T09:31:28;6.20;;;3.30;;
51048;SDS011;37084;55.228;36.450;2022-11-03T09:34:29;6.15;;;3.65;;
51048;SDS011;37084;55.228;36.450;2022-11-03T09:37:31;4.22;;;2.63;;
51048;SDS011;37084;55.228;36.450;2022-11-03T09:40:33;6.50;;;3.03;;
51048;SDS011;37084;55.228;36.450;2022-11-03T09:43:35;6.10;;;2.70;;
51048;SDS011;37084;55.228;36.450;2022-11-03T09:46:36;5.35;;;3.50;;
51048;SDS011;37084;55.228;36.450;2022-11-03T09:49:39;8.23;;;3.80;;
51048;SDS011;37084;55.228;36.450;2022-11-03T09:52:40;5.93;;;2.97;;
51048;SDS011;37084;55.228;36.450;2022-11-03T09:55:41;6.93;;;3.67;;
51048;SDS011;37084;55.228;36.450;2022-11-03T09:58:43;6.13;;;3.35;;
51048;SDS011;37084;55.228;36.450;2022-11-03T10:01:44;5.85;;;2.60;;
51048;SDS011;37084;55.228;36.450;2022-11-03T10:04:48;5.22;;;3.22;;
51048;SDS011;37084;55.228;36.450;2022-11-03T10:07:53;5.28;;;3.00;;
51048;SDS011;37084;55.228;36.450;2022-11-03T10:13:58;5.55;;;3.15;;
51048;SDS011;37084;55.228;36.450;2022-11-03T10:17:00;5.20;;;3.15;;
51048;SDS011;37084;55.228;36.450;2022-11-03T10:20:01;6.20;;;3.40;;
51048;SDS011;37084;55.228;36.450;2022-11-03T10:23:07;6.05;;;2.78;;
51048;SDS011;37084;55.228;36.450;2022-11-03T10:30:07;4.68;;;2.97;;
51048;SDS011;37084;55.228;36.450;2022-11-03T10:33:23;5.72;;;2.80;;
51048;SDS011;37084;55.228;36.450;2022-11-03T10:36:32;5.72;;;3.03;;
51048;SDS011;37084;55.228;36.450;2022-11-03T10:39:34;4.68;;;2.75;;
51048;SDS011;37084;55.228;36.450;2022-11-03T10:42:35;4.22;;;2.60;;
51048;SDS011;37084;55.228;36.450;2022-11-03T10:45:36;6.55;;;4.13;;
51048;SDS011;37084;55.228;36.450;2022-11-03T10:48:38;6.20;;;2.95;;
51048;SDS011;37084;55.228;36.450;2022-11-03T10:51:43;10.45;;;4.43;;
51048;SDS011;37084;55.228;36.450;2022-11-03T10:54:47;26.65;;;12.50;;
51048;SDS011;37084;55.228;36.450;2022-11-03T10:57:49;7.13;;;3.25;;
51048;SDS011;37084;55.228;36.450;2022-11-03T11:00:52;8.15;;;3.33;;
51048;SDS011;37084;55.228;36.450;2022-11-03T11:03:53;5.90;;;2.90;;
51048;SDS011;37084;55.228;36.450;2022-11-03T11:06:55;4.85;;;2.80;;
51048;SDS011;37084;55.228;36.450;2022-11-03T11:09:56;6.00;;;4.03;;
51048;SDS011;37084;55.228;36.450;2022-11-03T11:26:35;5.75;;;3.10;;
51048;SDS011;37084;55.228;36.450;2022-11-03T11:29:37;7.07;;;3.65;;
51048;SDS011;37084;55.228;36.450;2022-11-03T11:46:19;11.35;;;4.78;;
51048;SDS011;37084;55.228;36.450;2022-11-03T11:51:59;7.45;;;4.30;;
51048;SDS011;37084;55.228;36.450;2022-11-03T11:55:02;5.38;;;2.72;;
51048;SDS011;37084;55.228;36.450;2022-11-03T11:58:05;4.32;;;2.90;;
51048;SDS011;37084;55.228;36.450;2022-11-03T12:01:32;2.85;;;2.10;;
51048;SDS011;37084;55.228;36.450;2022-11-03T12:04:36;5.82;;;2.72;;
51048;SDS011;37084;55.228;36.450;2022-11-03T12:07:37;4.15;;;2.67;;
51048;SDS011;37084;55.228;36.450;2022-11-03T12:10:38;5.05;;;2.83;;
51048;SDS011;37084;55.228;36.450;2022-11-03T12:13:52;4.57;;;3.03;;
51048;SDS011;37084;55.228;36.450;2022-11-03T12:16:54;5.18;;;3.17;;
51048;SDS011;37084;55.228;36.450;2022-11-03T12:19:56;5.03;;;3.38;;
51048;SDS011;37084;55.228;36.450;2022-11-03T12:22:57;5.18;;;2.70;;
51048;SDS011;37084;55.228;36.450;2022-11-03T12:25:59;5.95;;;3.30;;
51048;SDS011;37084;55.228;36.450;2022-11-03T12:29:00;5.97;;;3.60;;
51048;SDS011;37084;55.228;36.450;2022-11-03T12:32:01;7.82;;;4.15;;
51048;SDS011;37084;55.228;36.450;2022-11-03T12:35:03;6.45;;;3.30;;
51048;SDS011;37084;55.228;36.450;2022-11-03T12:38:06;6.70;;;3.00;;
51048;SDS011;37084;55.228;36.450;2022-11-03T12:41:07;7.80;;;3.33;;
51048;SDS011;37084;55.228;36.450;2022-11-03T12:44:21;7.28;;;3.00;;
51048;SDS011;37084;55.228;36.450;2022-11-03T12:47:22;5.40;;;3.00;;
51048;SDS011;37084;55.228;36.450;2022-11-03T12:50:23;5.43;;;3.28;;
51048;SDS011;37084;55.228;36.450;2022-11-03T12:53:24;5.07;;;3.30;;
51048;SDS011;37084;55.228;36.450;2022-11-03T12:56:25;7.65;;;3.60;;
51048;SDS011;37084;55.228;36.450;2022-11-03T12:59:27;6.55;;;3.10;;
51048;SDS011;37084;55.228;36.450;2022-11-03T13:05:48;4.30;;;2.50;;
51048;SDS011;37084;55.228;36.450;2022-11-03T13:08:49;4.35;;;3.28;;
51048;SDS011;37084;55.228;36.450;2022-11-03T13:11:51;3.92;;;2.40;;
51048;SDS011;37084;55.228;36.450;2022-11-03T13:15:10;6.22;;;3.72;;
51048;SDS011;37084;55.228;36.450;2022-11-03T13:18:13;3.97;;;2.05;;
51048;SDS011;37084;55.228;36.450;2022-11-03T13:21:14;5.53;;;3.55;;
51048;SDS011;37084;55.228;36.450;2022-11-03T13:24:15;1.88;;;1.73;;
51048;SDS011;37084;55.228;36.450;2022-11-03T13:27:16;6.18;;;3.28;;
51048;SDS011;37084;55.228;36.450;2022-11-03T13:30:18;6.40;;;2.95;;
51048;SDS011;37084;55.228;36.450;2022-11-03T13:33:23;6.32;;;3.83;;
51048;SDS011;37084;55.228;36.450;2022-11-03T13:36:24;5.95;;;3.38;;
51048;SDS011;37084;55.228;36.450;2022-11-03T13:39:26;6.50;;;4.20;;
51048;SDS011;37084;55.228;36.450;2022-11-03T13:42:27;6.05;;;3.63;;
51048;SDS011;37084;55.228;36.450;2022-11-03T13:45:28;6.55;;;3.95;;
51048;SDS011;37084;55.228;36.450;2022-11-03T13:48:30;6.60;;;3.47;;
51048;SDS011;37084;55.228;36.450;2022-11-03T13:51:31;6.20;;;3.42;;
51048;SDS011;37084;55.228;36.450;2022-11-03T13:54:32;4.60;;;3.42;;
51048;SDS011;37084;55.228;36.450;2022-11-03T13:57:34;6.45;;;4.05;;
51048;SDS011;37084;55.228;36.450;2022-11-03T14:00:35;6.03;;;3.40;;
51048;SDS011;37084;55.228;36.450;2022-11-03T14:03:36;7.45;;;3.95;;
51048;SDS011;37084;55.228;36.450;2022-11-03T14:06:38;8.18;;;4.43;;
51048;SDS011;37084;55.228;36.450;2022-11-03T14:09:40;7.90;;;4.40;;
51048;SDS011;37084;55.228;36.450;2022-11-03T14:12:41;6.47;;;3.92;;
51048;SDS011;37084;55.228;36.450;2022-11-03T14:15:42;7.85;;;4.10;;
51048;SDS011;37084;55.228;36.450;2022-11-03T14:18:44;6.60;;;3.35;;
51048;SDS011;37084;55.228;36.450;2022-11-03T14:21:45;7.07;;;3.60;;
51048;SDS011;37084;55.228;36.450;2022-11-03T14:24:46;6.97;;;3.90;;
51048;SDS011;37084;55.228;36.450;2022-11-03T14:27:48;4.03;;;3.22;;
51048;SDS011;37084;55.228;36.450;2022-11-03T14:30:50;4.28;;;2.83;;
51048;SDS011;37084;55.228;36.450;2022-11-03T14:33:51;5.97;;;3.17;;
51048;SDS011;37084;55.228;36.450;2022-11-03T14:36:53;4.93;;;3.17;;
51048;SDS011;37084;55.228;36.450;2022-11-03T14:39:54;4.80;;;2.83;;
51048;SDS011;37084;55.228;36.450;2022-11-03T14:42:55;4.63;;;2.80;;
51048;SDS011;37084;55.228;36.450;2022-11-03T14:45:56;6.45;;;2.97;;
51048;SDS011;37084;55.228;36.450;2022-11-03T14:48:58;7.32;;;3.80;;
51048;SDS011;37084;55.228;36.450;2022-11-03T14:52:03;4.93;;;3.67;;
51048;SDS011;37084;55.228;36.450;2022-11-03T14:55:06;5.70;;;3.55;;
51048;SDS011;37084;55.228;36.450;2022-11-03T14:58:26;6.40;;;3.58;;
51048;SDS011;37084;55.228;36.450;2022-11-03T15:01:27;5.30;;;3.63;;
51048;SDS011;37084;55.228;36.450;2022-11-03T15:04:29;5.22;;;3.72;;
51048;SDS011;37084;55.228;36.450;2022-11-03T15:07:30;6.22;;;4.30;;
51048;SDS011;37084;55.228;36.450;2022-11-03T15:10:32;4.82;;;2.63;;
51048;SDS011;37084;55.228;36.450;2022-11-03T15:13:33;5.60;;;3.22;;
51048;SDS011;37084;55.228;36.450;2022-11-03T15:16:34;5.60;;;3.53;;
51048;SDS011;37084;55.228;36.450;2022-11-03T15:19:36;6.65;;;3.60;;
51048;SDS011;37084;55.228;36.450;2022-11-03T15:22:37;5.18;;;2.70;;
51048;SDS011;37084;55.228;36.450;2022-11-03T15:25:38;4.05;;;2.30;;
51048;SDS011;37084;55.228;36.450;2022-11-03T15:28:40;3.55;;;2.30;;
51048;SDS011;37084;55.228;36.450;2022-11-03T15:31:42;3.00;;;1.73;;
51048;SDS011;37084;55.228;36.450;2022-11-03T15:34:43;4.05;;;2.97;;
51048;SDS011;37084;55.228;36.450;2022-11-03T15:37:44;4.18;;;2.50;;
51048;SDS011;37084;55.228;36.450;2022-11-03T15:40:46;4.72;;;3.47;;
51048;SDS011;37084;55.228;36.450;2022-11-03T15:43:48;6.70;;;3.08;;
51048;SDS011;37084;55.228;36.450;2022-11-03T15:46:50;5.25;;;3.58;;
51048;SDS011;37084;55.228;36.450;2022-11-03T15:49:51;5.10;;;2.95;;
51048;SDS011;37084;55.228;36.450;2022-11-03T15:53:10;5.03;;;2.95;;
51048;SDS011;37084;55.228;36.450;2022-11-03T15:56:12;4.88;;;2.97;;
51048;SDS011;37084;55.228;36.450;2022-11-03T15:59:13;4.82;;;3.05;;
51048;SDS011;37084;55.228;36.450;2022-11-03T16:02:14;6.32;;;3.60;;
51048;SDS011;37084;55.228;36.450;2022-11-03T16:05:17;5.22;;;3.10;;
51048;SDS011;37084;55.228;36.450;2022-11-03T16:08:18;6.32;;;3.25;;
51048;SDS011;37084;55.228;36.450;2022-11-03T16:11:19;5.10;;;3.40;;
51048;SDS011;37084;55.228;36.450;2022-11-03T16:14:21;5.95;;;3.42;;
51048;SDS011;37084;55.228;36.450;2022-11-03T16:17:23;5.35;;;3.20;;
51048;SDS011;37084;55.228;36.450;2022-11-03T16:20:24;4.70;;;3.15;;
51048;SDS011;37084;55.228;36.450;2022-11-03T16:23:27;4.80;;;2.83;;
51048;SDS011;37084;55.228;36.450;2022-11-03T16:26:28;3.35;;;3.05;;
51048;SDS011;37084;55.228;36.450;2022-11-03T16:29:31;5.53;;;3.40;;
51048;SDS011;37084;55.228;36.450;2022-11-03T16:32:32;4.78;;;2.83;;
51048;SDS011;37084;55.228;36.450;2022-11-03T16:35:33;4.43;;;2.90;;
51048;SDS011;37084;55.228;36.450;2022-11-03T16:38:34;5.22;;;2.80;;
51048;SDS011;37084;55.228;36.450;2022-11-03T16:41:35;6.45;;;3.40;;
51048;SDS011;37084;55.228;36.450;2022-11-03T16:44:37;4.13;;;2.92;;
51048;SDS011;37084;55.228;36.450;2022-11-03T16:47:38;4.60;;;3.40;;
51048;SDS011;37084;55.228;36.450;2022-11-03T16:50:39;6.15;;;3.63;;
51048;SDS011;37084;55.228;36.450;2022-11-03T16:53:40;5.45;;;3.15;;
51048;SDS011;37084;55.228;36.450;2022-11-03T16:56:41;7.03;;;4.13;;
51048;SDS011;37084;55.228;36.450;2022-11-03T16:59:44;4.65;;;3.47;;
51048;SDS011;37084;55.228;36.450;2022-11-03T17:02:45;5.90;;;3.95;;
51048;SDS011;37084;55.228;36.450;2022-11-03T17:05:47;5.03;;;3.17;;
51048;SDS011;37084;55.228;36.450;2022-11-03T17:08:48;7.07;;;3.60;;
51048;SDS011;37084;55.228;36.450;2022-11-03T17:11:49;5.65;;;3.47;;
51048;SDS011;37084;55.228;36.450;2022-11-03T17:14:50;6.10;;;3.40;;
51048;SDS011;37084;55.228;36.450;2022-11-03T17:18:10;6.95;;;3.30;;
51048;SDS011;37084;55.228;36.450;2022-11-03T17:21:11;6.40;;;3.75;;
51048;SDS011;37084;55.228;36.450;2022-11-03T17:24:13;5.95;;;3.80;;
51048;SDS011;37084;55.228;36.450;2022-11-03T17:27:16;5.72;;;3.28;;
51048;SDS011;37084;55.228;36.450;2022-11-03T17:30:25;6.88;;;3.20;;
51048;SDS011;37084;55.228;36.450;2022-11-03T17:33:28;3.28;;;1.98;;
51048;SDS011;37084;55.228;36.450;2022-11-03T17:36:30;4.70;;;3.55;;
51048;SDS011;37084;55.228;36.450;2022-11-03T17:39:32;5.65;;;2.97;;
51048;SDS011;37084;55.228;36.450;2022-11-03T17:42:35;3.83;;;3.15;;
51048;SDS011;37084;55.228;36.450;2022-11-03T17:45:36;3.50;;;2.42;;
51048;SDS011;37084;55.228;36.450;2022-11-03T17:48:38;4.40;;;3.40;;
51048;SDS011;37084;55.228;36.450;2022-11-03T17:51:40;5.47;;;2.67;;
51048;SDS011;37084;55.228;36.450;2022-11-03T17:54:42;4.63;;;2.80;;
51048;SDS011;37084;55.228;36.450;2022-11-03T17:57:43;4.80;;;2.40;;
51048;SDS011;37084;55.228;36.450;2022-11-03T18:00:45;6.38;;;3.28;;
51048;SDS011;37084;55.228;36.450;2022-11-03T18:03:46;6.07;;;3.70;;
51048;SDS011;37084;55.228;36.450;2022-11-03T18:06:48;6.70;;;3.05;;
51048;SDS011;37084;55.228;36.450;2022-11-03T18:09:49;5.25;;;3.35;;
51048;SDS011;37084;55.228;36.450;2022-11-03T18:12:50;6.00;;;3.92;;
51048;SDS011;37084;55.228;36.450;2022-11-03T18:16:10;5.82;;;3.13;;
51048;SDS011;37084;55.228;36.450;2022-11-03T18:19:13;6.05;;;3.33;;
51048;SDS011;37084;55.228;36.450;2022-11-03T18:22:15;6.35;;;3.50;;
51048;SDS011;37084;55.228;36.450;2022-11-03T18:25:17;5.82;;;3.25;;
51048;SDS011;37084;55.228;36.450;2022-11-03T18:28:20;4.57;;;2.88;;
51048;SDS011;37084;55.228;36.450;2022-11-03T18:31:23;6.38;;;3.75;;
51048;SDS011;37084;55.228;36.450;2022-11-03T18:34:30;7.75;;;4.78;;
51048;SDS011;37084;55.228;36.450;2022-11-03T18:37:32;7.38;;;3.45;;
51048;SDS011;37084;55.228;36.450;2022-11-03T18:40:34;6.60;;;3.50;;
51048;SDS011;37084;55.228;36.450;2022-11-03T18:43:36;6.78;;;4.25;;
51048;SDS011;37084;55.228;36.450;2022-11-03T18:46:37;7.25;;;3.65;;
51048;SDS011;37084;55.228;36.450;2022-11-03T18:49:38;3.50;;;2.58;;
51048;SDS011;37084;55.228;36.450;2022-11-03T18:52:46;6.32;;;3.53;;
51048;SDS011;37084;55.228;36.450;2022-11-03T18:55:50;6.22;;;3.65;;
51048;SDS011;37084;55.228;36.450;2022-11-03T18:58:58;8.23;;;4.57;;
51048;SDS011;37084;55.228;36.450;2022-11-03T19:02:00;8.93;;;4.78;;
51048;SDS011;37084;55.228;36.450;2022-11-03T19:05:02;6.93;;;3.90;;
51048;SDS011;37084;55.228;36.450;2022-11-03T19:08:04;7.40;;;3.95;;
51048;SDS011;37084;55.228;36.450;2022-11-03T19:11:05;9.40;;;3.95;;
51048;SDS011;37084;55.228;36.450;2022-11-03T19:14:06;8.45;;;4.18;;
51048;SDS011;37084;55.228;36.450;2022-11-03T19:17:14;8.18;;;3.92;;
51048;SDS011;37084;55.228;36.450;2022-11-03T19:20:16;7.70;;;3.95;;